sensor_id;sensor_type;location;lat;lon;timestamp;temperature;humidity
68248;SHT30;55064;49.636;12.164;2022-11-15T00:00:55;3.08;93.46
68248;SHT30;55064;49.636;12.164;2022-11-15T00:03:23;2.99;93.97
68248;SHT30;55064;49.636;12.164;2022-11-15T00:05:49;2.91;94.20
68248;SHT30;55064;49.636;12.164;2022-11-15T00:08:15;2.93;94.38
68248;SHT30;55064;49.636;12.164;2022-11-15T00:10:53;2.91;94.19
68248;SHT30;55064;49.636;12.164;2022-11-15T00:13:19;2.91;94.01
68248;SHT30;55064;49.636;12.164;2022-11-15T00:15:49;2.90;94.11
68248;SHT30;55064;49.636;12.164;2022-11-15T00:18:17;2.93;94.47
68248;SHT30;55064;49.636;12.164;2022-11-15T00:20:45;2.93;94.33
68248;SHT30;55064;49.636;12.164;2022-11-15T00:23:11;2.99;94.04
68248;SHT30;55064;49.636;12.164;2022-11-15T00:25:36;2.96;94.14
68248;SHT30;55064;49.636;12.164;2022-11-15T00:28:06;2.97;94.11
68248;SHT30;55064;49.636;12.164;2022-11-15T00:30:32;2.96;94.14
68248;SHT30;55064;49.636;12.164;2022-11-15T00:33:03;2.94;94.15
68248;SHT30;55064;49.636;12.164;2022-11-15T00:35:28;2.96;94.02
68248;SHT30;55064;49.636;12.164;2022-11-15T00:37:53;2.91;93.99
68248;SHT30;55064;49.636;12.164;2022-11-15T00:40:24;2.87;93.95
68248;SHT30;55064;49.636;12.164;2022-11-15T00:42:49;2.89;93.92
68248;SHT30;55064;49.636;12.164;2022-11-15T00:45:17;2.93;94.00
68248;SHT30;55064;49.636;12.164;2022-11-15T00:47:46;2.89;93.86
68248;SHT30;55064;49.636;12.164;2022-11-15T00:50:14;2.83;93.53
68248;SHT30;55064;49.636;12.164;2022-11-15T00:52:42;2.64;93.43
68248;SHT30;55064;49.636;12.164;2022-11-15T00:55:15;2.55;93.83
68248;SHT30;55064;49.636;12.164;2022-11-15T00:57:43;2.46;94.34
68248;SHT30;55064;49.636;12.164;2022-11-15T01:00:09;2.41;94.72
68248;SHT30;55064;49.636;12.164;2022-11-15T01:02:35;2.41;94.86
68248;SHT30;55064;49.636;12.164;2022-11-15T01:05:00;2.44;95.08
68248;SHT30;55064;49.636;12.164;2022-11-15T01:07:25;2.48;95.09
68248;SHT30;55064;49.636;12.164;2022-11-15T01:09:51;2.46;94.81
68248;SHT30;55064;49.636;12.164;2022-11-15T01:12:21;2.48;94.68
68248;SHT30;55064;49.636;12.164;2022-11-15T01:14:49;2.42;94.75
68248;SHT30;55064;49.636;12.164;2022-11-15T01:17:15;2.46;94.87
68248;SHT30;55064;49.636;12.164;2022-11-15T01:19:40;2.52;95.09
68248;SHT30;55064;49.636;12.164;2022-11-15T01:22:05;2.49;95.06
68248;SHT30;55064;49.636;12.164;2022-11-15T01:24:33;2.42;94.51
68248;SHT30;55064;49.636;12.164;2022-11-15T01:27:02;2.35;94.33
68248;SHT30;55064;49.636;12.164;2022-11-15T01:29:27;2.29;95.15
68248;SHT30;55064;49.636;12.164;2022-11-15T01:31:53;2.24;95.26
68248;SHT30;55064;49.636;12.164;2022-11-15T01:34:19;2.26;95.32
68248;SHT30;55064;49.636;12.164;2022-11-15T01:36:44;2.28;95.30
68248;SHT30;55064;49.636;12.164;2022-11-15T01:39:09;2.31;95.19
68248;SHT30;55064;49.636;12.164;2022-11-15T01:41:35;2.38;94.87
68248;SHT30;55064;49.636;12.164;2022-11-15T01:44:39;2.36;95.06
68248;SHT30;55064;49.636;12.164;2022-11-15T01:47:10;2.44;94.84
68248;SHT30;55064;49.636;12.164;2022-11-15T01:49:39;2.38;94.97
68248;SHT30;55064;49.636;12.164;2022-11-15T01:52:19;2.38;94.61
68248;SHT30;55064;49.636;12.164;2022-11-15T01:54:56;2.34;94.39
68248;SHT30;55064;49.636;12.164;2022-11-15T01:57:28;2.29;94.37
68248;SHT30;55064;49.636;12.164;2022-11-15T01:59:54;2.29;94.46
68248;SHT30;55064;49.636;12.164;2022-11-15T02:02:20;2.24;94.62
68248;SHT30;55064;49.636;12.164;2022-11-15T02:04:46;2.22;94.77
68248;SHT30;55064;49.636;12.164;2022-11-15T02:07:15;2.21;94.79
68248;SHT30;55064;49.636;12.164;2022-11-15T02:09:44;2.20;94.89
68248;SHT30;55064;49.636;12.164;2022-11-15T02:12:16;2.21;95.04
68248;SHT30;55064;49.636;12.164;2022-11-15T02:14:47;2.18;94.99
68248;SHT30;55064;49.636;12.164;2022-11-15T02:17:21;2.20;95.01
68248;SHT30;55064;49.636;12.164;2022-11-15T02:23:06;2.17;95.81
68248;SHT30;55064;49.636;12.164;2022-11-15T02:31:09;2.22;95.68
68248;SHT30;55064;49.636;12.164;2022-11-15T02:33:53;2.22;95.77
68248;SHT30;55064;49.636;12.164;2022-11-15T02:36:34;2.22;95.68
68248;SHT30;55064;49.636;12.164;2022-11-15T02:39:10;2.25;95.56
68248;SHT30;55064;49.636;12.164;2022-11-15T02:41:49;2.20;95.58
68248;SHT30;55064;49.636;12.164;2022-11-15T02:44:26;2.18;95.43
68248;SHT30;55064;49.636;12.164;2022-11-15T02:47:00;2.18;95.31
68248;SHT30;55064;49.636;12.164;2022-11-15T02:49:46;2.15;95.53
68248;SHT30;55064;49.636;12.164;2022-11-15T02:52:20;2.15;95.48
68248;SHT30;55064;49.636;12.164;2022-11-15T02:54:56;2.15;95.53
68248;SHT30;55064;49.636;12.164;2022-11-15T02:58:05;2.15;95.44
68248;SHT30;55064;49.636;12.164;2022-11-15T03:00:35;2.11;95.35
68248;SHT30;55064;49.636;12.164;2022-11-15T03:05:46;2.03;95.36
68248;SHT30;55064;49.636;12.164;2022-11-15T03:08:25;1.97;95.24
68248;SHT30;55064;49.636;12.164;2022-11-15T03:13:59;1.90;95.44
68248;SHT30;55064;49.636;12.164;2022-11-15T03:16:51;1.93;95.03
68248;SHT30;55064;49.636;12.164;2022-11-15T03:22:46;1.83;95.12
68248;SHT30;55064;49.636;12.164;2022-11-15T03:25:17;1.84;95.37
68248;SHT30;55064;49.636;12.164;2022-11-15T03:27:50;1.87;95.44
68248;SHT30;55064;49.636;12.164;2022-11-15T03:30:18;1.86;95.50
68248;SHT30;55064;49.636;12.164;2022-11-15T03:32:51;1.86;95.72
68248;SHT30;55064;49.636;12.164;2022-11-15T03:35:21;1.86;95.71
68248;SHT30;55064;49.636;12.164;2022-11-15T03:38:00;1.84;95.85
68248;SHT30;55064;49.636;12.164;2022-11-15T03:40:42;1.88;95.65
68248;SHT30;55064;49.636;12.164;2022-11-15T03:43:26;1.83;95.80
68248;SHT30;55064;49.636;12.164;2022-11-15T03:46:20;1.80;95.80
68248;SHT30;55064;49.636;12.164;2022-11-15T03:48:54;1.77;95.77
68248;SHT30;55064;49.636;12.164;2022-11-15T03:51:22;1.77;95.73
68248;SHT30;55064;49.636;12.164;2022-11-15T03:53:47;1.79;95.50
68248;SHT30;55064;49.636;12.164;2022-11-15T03:56:18;1.74;95.68
68248;SHT30;55064;49.636;12.164;2022-11-15T03:58:44;1.67;95.49
68248;SHT30;55064;49.636;12.164;2022-11-15T04:01:10;1.70;95.37
68248;SHT30;55064;49.636;12.164;2022-11-15T04:03:37;1.66;95.54
68248;SHT30;55064;49.636;12.164;2022-11-15T04:06:06;1.64;95.78
68248;SHT30;55064;49.636;12.164;2022-11-15T04:08:32;1.63;95.47
68248;SHT30;55064;49.636;12.164;2022-11-15T04:10:59;1.59;95.67
68248;SHT30;55064;49.636;12.164;2022-11-15T04:13:29;1.59;95.49
68248;SHT30;55064;49.636;12.164;2022-11-15T04:15:54;1.63;95.31
68248;SHT30;55064;49.636;12.164;2022-11-15T04:18:24;1.59;95.34
68248;SHT30;55064;49.636;12.164;2022-11-15T04:20:52;1.56;95.25
68248;SHT30;55064;49.636;12.164;2022-11-15T04:23:36;1.55;95.18
68248;SHT30;55064;49.636;12.164;2022-11-15T04:26:19;1.58;95.01
68248;SHT30;55064;49.636;12.164;2022-11-15T04:28:48;1.53;95.17
68248;SHT30;55064;49.636;12.164;2022-11-15T04:31:32;1.48;95.30
68248;SHT30;55064;49.636;12.164;2022-11-15T04:33:57;1.45;95.18
68248;SHT30;55064;49.636;12.164;2022-11-15T04:36:26;1.48;95.05
68248;SHT30;55064;49.636;12.164;2022-11-15T04:39:11;1.42;95.22
68248;SHT30;55064;49.636;12.164;2022-11-15T04:41:36;1.45;95.08
68248;SHT30;55064;49.636;12.164;2022-11-15T04:44:02;1.42;95.24
68248;SHT30;55064;49.636;12.164;2022-11-15T04:46:29;1.41;95.25
68248;SHT30;55064;49.636;12.164;2022-11-15T04:48:57;1.38;95.14
68248;SHT30;55064;49.636;12.164;2022-11-15T04:51:25;1.41;95.07
68248;SHT30;55064;49.636;12.164;2022-11-15T04:53:57;1.36;94.97
68248;SHT30;55064;49.636;12.164;2022-11-15T04:56:27;1.32;94.89
68248;SHT30;55064;49.636;12.164;2022-11-15T04:58:53;1.28;94.76
68248;SHT30;55064;49.636;12.164;2022-11-15T05:01:18;1.27;94.74
68248;SHT30;55064;49.636;12.164;2022-11-15T05:03:46;1.25;94.65
68248;SHT30;55064;49.636;12.164;2022-11-15T05:06:30;1.21;94.59
68248;SHT30;55064;49.636;12.164;2022-11-15T05:08:56;1.17;94.58
68248;SHT30;55064;49.636;12.164;2022-11-15T05:11:25;1.13;94.67
68248;SHT30;55064;49.636;12.164;2022-11-15T05:13:53;1.09;94.75
68248;SHT30;55064;49.636;12.164;2022-11-15T05:16:21;1.08;94.82
68248;SHT30;55064;49.636;12.164;2022-11-15T05:18:50;1.11;94.87
68248;SHT30;55064;49.636;12.164;2022-11-15T05:21:16;1.13;94.78
68248;SHT30;55064;49.636;12.164;2022-11-15T05:23:46;1.14;94.66
68248;SHT30;55064;49.636;12.164;2022-11-15T05:26:26;1.11;94.60
68248;SHT30;55064;49.636;12.164;2022-11-15T05:28:58;1.05;94.60
68248;SHT30;55064;49.636;12.164;2022-11-15T05:31:25;1.03;94.57
68248;SHT30;55064;49.636;12.164;2022-11-15T05:33:51;1.05;94.38
68248;SHT30;55064;49.636;12.164;2022-11-15T05:38:55;0.96;94.07
68248;SHT30;55064;49.636;12.164;2022-11-15T05:41:35;0.93;94.23
68248;SHT30;55064;49.636;12.164;2022-11-15T05:44:06;0.86;94.41
68248;SHT30;55064;49.636;12.164;2022-11-15T05:46:33;0.88;94.50
68248;SHT30;55064;49.636;12.164;2022-11-15T05:49:01;0.87;94.81
68248;SHT30;55064;49.636;12.164;2022-11-15T05:51:28;0.83;94.79
68248;SHT30;55064;49.636;12.164;2022-11-15T05:53:58;0.84;94.92
68248;SHT30;55064;49.636;12.164;2022-11-15T05:56:28;0.83;95.18
68248;SHT30;55064;49.636;12.164;2022-11-15T05:58:55;0.83;95.11
68248;SHT30;55064;49.636;12.164;2022-11-15T06:01:21;0.87;95.02
68248;SHT30;55064;49.636;12.164;2022-11-15T06:03:49;0.88;94.94
68248;SHT30;55064;49.636;12.164;2022-11-15T06:06:21;0.88;95.26
68248;SHT30;55064;49.636;12.164;2022-11-15T06:08:47;0.88;95.63
68248;SHT30;55064;49.636;12.164;2022-11-15T06:11:13;0.86;95.34
68248;SHT30;55064;49.636;12.164;2022-11-15T06:13:40;0.90;95.41
68248;SHT30;55064;49.636;12.164;2022-11-15T06:16:06;0.91;95.38
68248;SHT30;55064;49.636;12.164;2022-11-15T06:18:33;0.93;95.42
68248;SHT30;55064;49.636;12.164;2022-11-15T06:21:01;0.90;94.97
68248;SHT30;55064;49.636;12.164;2022-11-15T06:23:27;0.88;95.01
68248;SHT30;55064;49.636;12.164;2022-11-15T06:25:57;0.88;94.64
68248;SHT30;55064;49.636;12.164;2022-11-15T06:28:23;0.90;94.72
68248;SHT30;55064;49.636;12.164;2022-11-15T06:30:48;0.86;94.58
68248;SHT30;55064;49.636;12.164;2022-11-15T06:33:13;0.81;94.63
68248;SHT30;55064;49.636;12.164;2022-11-15T06:35:39;0.81;94.78
68248;SHT30;55064;49.636;12.164;2022-11-15T06:38:09;0.83;94.90
68248;SHT30;55064;49.636;12.164;2022-11-15T06:40:38;0.80;95.34
68248;SHT30;55064;49.636;12.164;2022-11-15T06:43:06;0.79;95.86
68248;SHT30;55064;49.636;12.164;2022-11-15T06:45:33;0.80;95.76
68248;SHT30;55064;49.636;12.164;2022-11-15T06:47:58;0.83;95.73
68248;SHT30;55064;49.636;12.164;2022-11-15T06:50:26;0.80;96.60
68248;SHT30;55064;49.636;12.164;2022-11-15T06:52:51;0.84;96.31
68248;SHT30;55064;49.636;12.164;2022-11-15T06:55:19;0.86;95.95
68248;SHT30;55064;49.636;12.164;2022-11-15T06:57:49;0.88;96.08
68248;SHT30;55064;49.636;12.164;2022-11-15T07:00:16;0.86;96.15
68248;SHT30;55064;49.636;12.164;2022-11-15T07:02:42;0.93;95.99
68248;SHT30;55064;49.636;12.164;2022-11-15T07:05:10;0.98;95.95
68248;SHT30;55064;49.636;12.164;2022-11-15T07:07:36;1.01;96.16
68248;SHT30;55064;49.636;12.164;2022-11-15T07:10:02;1.08;95.92
68248;SHT30;55064;49.636;12.164;2022-11-15T07:12:30;1.15;95.97
68248;SHT30;55064;49.636;12.164;2022-11-15T07:14:55;1.22;96.04
68248;SHT30;55064;49.636;12.164;2022-11-15T07:17:22;1.28;96.19
68248;SHT30;55064;49.636;12.164;2022-11-15T07:19:47;1.27;96.47
68248;SHT30;55064;49.636;12.164;2022-11-15T07:22:14;1.30;95.89
68248;SHT30;55064;49.636;12.164;2022-11-15T07:24:39;1.32;95.71
68248;SHT30;55064;49.636;12.164;2022-11-15T07:27:05;1.34;95.69
68248;SHT30;55064;49.636;12.164;2022-11-15T07:29:31;1.41;95.94
68248;SHT30;55064;49.636;12.164;2022-11-15T07:32:01;1.42;95.64
68248;SHT30;55064;49.636;12.164;2022-11-15T07:34:26;1.46;95.80
68248;SHT30;55064;49.636;12.164;2022-11-15T07:36:54;1.56;95.73
68248;SHT30;55064;49.636;12.164;2022-11-15T07:39:22;1.80;95.64
68248;SHT30;55064;49.636;12.164;2022-11-15T07:41:47;2.35;94.71
68248;SHT30;55064;49.636;12.164;2022-11-15T07:44:16;2.96;91.87
68248;SHT30;55064;49.636;12.164;2022-11-15T07:46:42;3.25;90.01
68248;SHT30;55064;49.636;12.164;2022-11-15T07:49:07;3.56;88.50
68248;SHT30;55064;49.636;12.164;2022-11-15T07:51:33;4.00;86.52
68248;SHT30;55064;49.636;12.164;2022-11-15T07:53:58;4.38;85.68
68248;SHT30;55064;49.636;12.164;2022-11-15T07:56:27;4.35;85.45
68248;SHT30;55064;49.636;12.164;2022-11-15T07:58:52;4.60;84.79
68248;SHT30;55064;49.636;12.164;2022-11-15T08:01:18;4.80;84.09
68248;SHT30;55064;49.636;12.164;2022-11-15T08:03:46;4.72;84.33
68248;SHT30;55064;49.636;12.164;2022-11-15T08:06:11;4.28;85.55
68248;SHT30;55064;49.636;12.164;2022-11-15T08:08:39;4.31;86.13
68248;SHT30;55064;49.636;12.164;2022-11-15T08:11:04;4.65;85.28
68248;SHT30;55064;49.636;12.164;2022-11-15T08:13:32;5.07;83.76
68248;SHT30;55064;49.636;12.164;2022-11-15T08:16:00;5.25;83.09
68248;SHT30;55064;49.636;12.164;2022-11-15T08:18:25;5.27;83.45
68248;SHT30;55064;49.636;12.164;2022-11-15T08:20:51;5.07;84.15
68248;SHT30;55064;49.636;12.164;2022-11-15T08:23:16;4.72;85.45
68248;SHT30;55064;49.636;12.164;2022-11-15T08:25:41;4.98;85.51
68248;SHT30;55064;49.636;12.164;2022-11-15T08:28:10;5.11;85.02
68248;SHT30;55064;49.636;12.164;2022-11-15T08:30:38;5.39;84.59
68248;SHT30;55064;49.636;12.164;2022-11-15T08:33:10;5.32;84.20
68248;SHT30;55064;49.636;12.164;2022-11-15T08:35:40;4.95;85.57
68248;SHT30;55064;49.636;12.164;2022-11-15T08:38:07;4.86;86.56
68248;SHT30;55064;49.636;12.164;2022-11-15T08:40:33;4.83;86.85
68248;SHT30;55064;49.636;12.164;2022-11-15T08:42:58;4.87;87.05
68248;SHT30;55064;49.636;12.164;2022-11-15T08:45:27;4.77;87.61
68248;SHT30;55064;49.636;12.164;2022-11-15T08:47:55;4.70;88.40
68248;SHT30;55064;49.636;12.164;2022-11-15T08:50:20;4.66;88.33
68248;SHT30;55064;49.636;12.164;2022-11-15T08:52:46;4.77;88.89
68248;SHT30;55064;49.636;12.164;2022-11-15T08:55:15;4.90;88.63
68248;SHT30;55064;49.636;12.164;2022-11-15T08:57:43;5.01;88.76
68248;SHT30;55064;49.636;12.164;2022-11-15T09:00:09;5.08;88.52
68248;SHT30;55064;49.636;12.164;2022-11-15T09:02:39;5.27;88.38
68248;SHT30;55064;49.636;12.164;2022-11-15T09:05:05;5.32;88.16
68248;SHT30;55064;49.636;12.164;2022-11-15T09:07:31;5.45;87.61
68248;SHT30;55064;49.636;12.164;2022-11-15T09:09:57;5.66;87.11
68248;SHT30;55064;49.636;12.164;2022-11-15T09:12:22;5.90;87.02
68248;SHT30;55064;49.636;12.164;2022-11-15T09:14:49;5.93;86.17
68248;SHT30;55064;49.636;12.164;2022-11-15T09:17:15;6.08;86.08
68248;SHT30;55064;49.636;12.164;2022-11-15T09:19:41;6.15;86.15
68248;SHT30;55064;49.636;12.164;2022-11-15T09:22:07;6.34;85.94
68248;SHT30;55064;49.636;12.164;2022-11-15T09:24:33;6.53;85.90
68248;SHT30;55064;49.636;12.164;2022-11-15T09:26:59;6.49;85.02
68248;SHT30;55064;49.636;12.164;2022-11-15T09:29:29;6.73;84.61
68248;SHT30;55064;49.636;12.164;2022-11-15T09:31:54;6.79;84.73
68248;SHT30;55064;49.636;12.164;2022-11-15T09:34:20;6.81;83.90
68248;SHT30;55064;49.636;12.164;2022-11-15T09:36:47;7.01;84.24
68248;SHT30;55064;49.636;12.164;2022-11-15T09:39:13;7.21;84.12
68248;SHT30;55064;49.636;12.164;2022-11-15T09:46:59;7.87;82.97
68248;SHT30;55064;49.636;12.164;2022-11-15T09:49:31;8.04;82.54
68248;SHT30;55064;49.636;12.164;2022-11-15T09:51:57;8.20;82.06
68248;SHT30;55064;49.636;12.164;2022-11-15T09:56:51;8.50;81.52
68248;SHT30;55064;49.636;12.164;2022-11-15T10:02:33;8.58;81.38
68248;SHT30;55064;49.636;12.164;2022-11-15T10:05:02;8.76;81.64
68248;SHT30;55064;49.636;12.164;2022-11-15T10:12:53;9.28;79.68
68248;SHT30;55064;49.636;12.164;2022-11-15T10:15:21;9.38;79.25
68248;SHT30;55064;49.636;12.164;2022-11-15T10:23:06;9.42;79.83
68248;SHT30;55064;49.636;12.164;2022-11-15T10:25:35;9.35;79.94
68248;SHT30;55064;49.636;12.164;2022-11-15T10:30:44;9.68;79.60
68248;SHT30;55064;49.636;12.164;2022-11-15T10:35:41;9.82;79.11
68248;SHT30;55064;49.636;12.164;2022-11-15T10:38:09;9.80;79.05
68248;SHT30;55064;49.636;12.164;2022-11-15T10:40:36;9.93;78.88
68248;SHT30;55064;49.636;12.164;2022-11-15T10:43:18;9.89;79.36
68248;SHT30;55064;49.636;12.164;2022-11-15T10:45:45;9.96;79.38
68248;SHT30;55064;49.636;12.164;2022-11-15T10:50:42;9.85;79.55
68248;SHT30;55064;49.636;12.164;2022-11-15T10:53:38;9.94;79.73
68248;SHT30;55064;49.636;12.164;2022-11-15T10:56:05;10.07;79.85
68248;SHT30;55064;49.636;12.164;2022-11-15T10:58:38;10.11;80.14
68248;SHT30;55064;49.636;12.164;2022-11-15T11:01:19;10.20;80.19
68248;SHT30;55064;49.636;12.164;2022-11-15T11:04:01;10.22;79.33
68248;SHT30;55064;49.636;12.164;2022-11-15T11:06:27;10.28;79.69
68248;SHT30;55064;49.636;12.164;2022-11-15T11:08:59;10.42;78.67
68248;SHT30;55064;49.636;12.164;2022-11-15T11:11:28;10.46;79.28
68248;SHT30;55064;49.636;12.164;2022-11-15T11:14:12;10.59;78.55
68248;SHT30;55064;49.636;12.164;2022-11-15T11:16:41;10.66;78.45
68248;SHT30;55064;49.636;12.164;2022-11-15T11:24:54;10.99;78.43
68248;SHT30;55064;49.636;12.164;2022-11-15T11:27:42;11.13;77.78
68248;SHT30;55064;49.636;12.164;2022-11-15T11:32:51;11.35;77.31
68248;SHT30;55064;49.636;12.164;2022-11-15T11:38:01;11.63;77.63
68248;SHT30;55064;49.636;12.164;2022-11-15T11:43:48;11.96;77.13
68248;SHT30;55064;49.636;12.164;2022-11-15T11:49:34;12.37;76.01
68248;SHT30;55064;49.636;12.164;2022-11-15T11:52:34;12.48;75.39
68248;SHT30;55064;49.636;12.164;2022-11-15T11:55:14;12.64;74.75
68248;SHT30;55064;49.636;12.164;2022-11-15T12:00:42;12.97;74.18
68248;SHT30;55064;49.636;12.164;2022-11-15T12:06:02;13.21;73.70
68248;SHT30;55064;49.636;12.164;2022-11-15T12:08:49;13.31;73.43
68248;SHT30;55064;49.636;12.164;2022-11-15T12:13:58;13.54;72.90
68248;SHT30;55064;49.636;12.164;2022-11-15T12:16:33;13.48;71.00
68248;SHT30;55064;49.636;12.164;2022-11-15T12:19:04;13.57;72.64
68248;SHT30;55064;49.636;12.164;2022-11-15T12:21:41;13.53;73.03
68248;SHT30;55064;49.636;12.164;2022-11-15T12:26:42;13.86;71.36
68248;SHT30;55064;49.636;12.164;2022-11-15T12:29:25;14.02;71.40
68248;SHT30;55064;49.636;12.164;2022-11-15T12:31:54;14.12;71.10
68248;SHT30;55064;49.636;12.164;2022-11-15T12:36:51;14.26;70.87
68248;SHT30;55064;49.636;12.164;2022-11-15T12:39:18;14.30;70.59
68248;SHT30;55064;49.636;12.164;2022-11-15T13:02:30;14.48;69.75
68248;SHT30;55064;49.636;12.164;2022-11-15T13:17:48;14.24;71.20
68248;SHT30;55064;49.636;12.164;2022-11-15T13:30:35;13.93;72.09
68248;SHT30;55064;49.636;12.164;2022-11-15T13:33:08;13.86;71.06
68248;SHT30;55064;49.636;12.164;2022-11-15T13:35:39;13.76;71.24
68248;SHT30;55064;49.636;12.164;2022-11-15T13:38:05;13.72;71.82
68248;SHT30;55064;49.636;12.164;2022-11-15T13:40:36;13.58;72.52
68248;SHT30;55064;49.636;12.164;2022-11-15T13:43:38;13.48;73.35
68248;SHT30;55064;49.636;12.164;2022-11-15T13:46:15;13.37;73.42
68248;SHT30;55064;49.636;12.164;2022-11-15T13:48:44;13.33;73.45
68248;SHT30;55064;49.636;12.164;2022-11-15T13:51:34;13.26;73.33
68248;SHT30;55064;49.636;12.164;2022-11-15T13:56:41;12.83;74.53
68248;SHT30;55064;49.636;12.164;2022-11-15T13:59:19;12.76;75.02
68248;SHT30;55064;49.636;12.164;2022-11-15T14:01:46;12.66;75.08
68248;SHT30;55064;49.636;12.164;2022-11-15T14:04:13;12.52;75.41
68248;SHT30;55064;49.636;12.164;2022-11-15T14:06:49;12.33;76.22
68248;SHT30;55064;49.636;12.164;2022-11-15T14:09:34;12.23;76.38
68248;SHT30;55064;49.636;12.164;2022-11-15T14:14:47;12.13;76.82
68248;SHT30;55064;49.636;12.164;2022-11-15T14:17:34;11.80;79.84
68248;SHT30;55064;49.636;12.164;2022-11-15T14:20:00;11.44;81.73
68248;SHT30;55064;49.636;12.164;2022-11-15T14:22:26;11.25;82.65
68248;SHT30;55064;49.636;12.164;2022-11-15T14:25:23;10.97;83.71
68248;SHT30;55064;49.636;12.164;2022-11-15T14:28:16;10.81;84.10
68248;SHT30;55064;49.636;12.164;2022-11-15T14:30:55;10.70;84.00
68248;SHT30;55064;49.636;12.164;2022-11-15T14:35:54;10.63;82.64
68248;SHT30;55064;49.636;12.164;2022-11-15T14:38:21;10.58;83.16
68248;SHT30;55064;49.636;12.164;2022-11-15T14:40:49;10.58;83.45
68248;SHT30;55064;49.636;12.164;2022-11-15T14:43:16;10.62;83.20
68248;SHT30;55064;49.636;12.164;2022-11-15T14:45:41;10.62;82.82
68248;SHT30;55064;49.636;12.164;2022-11-15T14:48:08;10.68;82.70
68248;SHT30;55064;49.636;12.164;2022-11-15T14:50:35;10.68;82.36
68248;SHT30;55064;49.636;12.164;2022-11-15T14:53:03;10.68;82.13
68248;SHT30;55064;49.636;12.164;2022-11-15T14:55:33;10.66;81.62
68248;SHT30;55064;49.636;12.164;2022-11-15T14:58:02;10.69;81.16
68248;SHT30;55064;49.636;12.164;2022-11-15T15:00:29;10.69;80.05
68248;SHT30;55064;49.636;12.164;2022-11-15T15:02:55;10.69;79.85
68248;SHT30;55064;49.636;12.164;2022-11-15T15:07:49;10.65;78.49
68248;SHT30;55064;49.636;12.164;2022-11-15T15:10:16;10.56;79.50
68248;SHT30;55064;49.636;12.164;2022-11-15T15:12:48;10.51;79.23
68248;SHT30;55064;49.636;12.164;2022-11-15T15:15:22;10.52;77.63
68248;SHT30;55064;49.636;12.164;2022-11-15T15:17:49;10.35;79.37
68248;SHT30;55064;49.636;12.164;2022-11-15T15:20:15;10.25;79.35
68248;SHT30;55064;49.636;12.164;2022-11-15T15:22:41;10.18;79.64
68248;SHT30;55064;49.636;12.164;2022-11-15T15:25:30;9.98;79.69
68248;SHT30;55064;49.636;12.164;2022-11-15T15:27:57;9.86;80.10
68248;SHT30;55064;49.636;12.164;2022-11-15T15:30:30;9.66;80.01
68248;SHT30;55064;49.636;12.164;2022-11-15T15:33:00;9.58;79.78
68248;SHT30;55064;49.636;12.164;2022-11-15T15:35:29;9.50;80.13
68248;SHT30;55064;49.636;12.164;2022-11-15T15:37:56;9.41;80.34
68248;SHT30;55064;49.636;12.164;2022-11-15T15:40:23;9.38;80.97
68248;SHT30;55064;49.636;12.164;2022-11-15T15:42:51;9.25;80.96
68248;SHT30;55064;49.636;12.164;2022-11-15T15:45:17;9.17;81.05
68248;SHT30;55064;49.636;12.164;2022-11-15T15:47:46;9.05;81.33
68248;SHT30;55064;49.636;12.164;2022-11-15T15:50:23;9.00;81.34
68248;SHT30;55064;49.636;12.164;2022-11-15T15:52:51;8.94;81.56
68248;SHT30;55064;49.636;12.164;2022-11-15T15:55:17;8.90;81.35
68248;SHT30;55064;49.636;12.164;2022-11-15T15:57:44;8.69;81.48
68248;SHT30;55064;49.636;12.164;2022-11-15T16:00:15;8.45;81.95
68248;SHT30;55064;49.636;12.164;2022-11-15T16:02:41;8.34;81.86
68248;SHT30;55064;49.636;12.164;2022-11-15T16:05:08;8.24;82.18
68248;SHT30;55064;49.636;12.164;2022-11-15T16:07:34;8.10;82.52
68248;SHT30;55064;49.636;12.164;2022-11-15T16:09:59;8.01;82.85
68248;SHT30;55064;49.636;12.164;2022-11-15T16:12:34;7.95;83.08
68248;SHT30;55064;49.636;12.164;2022-11-15T16:15:01;7.93;82.74
68248;SHT30;55064;49.636;12.164;2022-11-15T16:17:33;7.90;83.02
68248;SHT30;55064;49.636;12.164;2022-11-15T16:20:02;7.91;82.64
68248;SHT30;55064;49.636;12.164;2022-11-15T16:22:33;7.87;82.43
68248;SHT30;55064;49.636;12.164;2022-11-15T16:24:58;7.83;82.35
68248;SHT30;55064;49.636;12.164;2022-11-15T16:27:26;7.72;82.38
68248;SHT30;55064;49.636;12.164;2022-11-15T16:29:51;7.69;82.20
68248;SHT30;55064;49.636;12.164;2022-11-15T16:32:18;7.69;82.24
68248;SHT30;55064;49.636;12.164;2022-11-15T16:34:46;7.61;82.21
68248;SHT30;55064;49.636;12.164;2022-11-15T16:37:26;7.54;82.19
68248;SHT30;55064;49.636;12.164;2022-11-15T16:39:51;7.51;82.08
68248;SHT30;55064;49.636;12.164;2022-11-15T16:42:17;7.51;81.97
68248;SHT30;55064;49.636;12.164;2022-11-15T16:44:42;7.29;82.70
68248;SHT30;55064;49.636;12.164;2022-11-15T16:47:17;7.29;82.52
68248;SHT30;55064;49.636;12.164;2022-11-15T16:49:47;7.19;82.89
68248;SHT30;55064;49.636;12.164;2022-11-15T16:52:17;7.19;83.00
68248;SHT30;55064;49.636;12.164;2022-11-15T16:54:43;7.15;82.86
68248;SHT30;55064;49.636;12.164;2022-11-15T16:57:10;7.04;83.25
68248;SHT30;55064;49.636;12.164;2022-11-15T16:59:35;7.01;83.20
68248;SHT30;55064;49.636;12.164;2022-11-15T17:02:03;6.97;83.20
68248;SHT30;55064;49.636;12.164;2022-11-15T17:04:28;6.89;83.16
68248;SHT30;55064;49.636;12.164;2022-11-15T17:07:00;6.65;83.79
68248;SHT30;55064;49.636;12.164;2022-11-15T17:09:26;6.56;84.07
68248;SHT30;55064;49.636;12.164;2022-11-15T17:11:55;6.49;84.25
68248;SHT30;55064;49.636;12.164;2022-11-15T17:14:20;6.36;84.53
68248;SHT30;55064;49.636;12.164;2022-11-15T17:16:51;6.21;84.97
68248;SHT30;55064;49.636;12.164;2022-11-15T17:19:18;6.13;85.24
68248;SHT30;55064;49.636;12.164;2022-11-15T17:21:49;6.11;85.12
68248;SHT30;55064;49.636;12.164;2022-11-15T17:24:17;5.93;85.79
68248;SHT30;55064;49.636;12.164;2022-11-15T17:26:45;5.89;85.72
68248;SHT30;55064;49.636;12.164;2022-11-15T17:29:16;5.77;86.34
68248;SHT30;55064;49.636;12.164;2022-11-15T17:31:41;5.71;86.43
68248;SHT30;55064;49.636;12.164;2022-11-15T17:34:07;5.59;86.75
68248;SHT30;55064;49.636;12.164;2022-11-15T17:36:34;5.53;87.03
68248;SHT30;55064;49.636;12.164;2022-11-15T17:39:03;5.41;87.46
68248;SHT30;55064;49.636;12.164;2022-11-15T17:41:29;5.32;87.51
68248;SHT30;55064;49.636;12.164;2022-11-15T17:43:56;5.28;87.84
68248;SHT30;55064;49.636;12.164;2022-11-15T17:46:23;5.20;88.02
68248;SHT30;55064;49.636;12.164;2022-11-15T17:48:49;5.11;88.35
68248;SHT30;55064;49.636;12.164;2022-11-15T17:51:16;5.07;88.39
68248;SHT30;55064;49.636;12.164;2022-11-15T17:53:45;5.00;88.72
68248;SHT30;55064;49.636;12.164;2022-11-15T17:56:17;4.95;88.95
68248;SHT30;55064;49.636;12.164;2022-11-15T17:58:50;4.94;88.92